Time;durP1;ratioP1;P1;durP2;ratioP2;P2;SDS_P1;SDS_P2;PMS_P1;PMS_P2;Temp;Humidity;BMP_temperature;BMP_pressure;BME280_temperature;BME280_humidity;BME280_pressure;Samples;Min_cycle;Max_cycle;Signal;HPM_P1;HPM_P2
2021/06/12 00:01:39;;;;;;;;;6.33;6.33;;;;;27.32;44.86;101640.50;5062850;28;45317;-60
2021/06/12 00:04:05;;;;;;;;;7.00;6.33;;;;;27.31;45.09;101640.59;5072086;28;47382;-61
2021/06/12 00:06:30;;;;;;;;;7.67;7.67;;;;;27.31;44.92;101636.09;5062514;28;45302;-61
2021/06/12 00:08:56;;;;;;;;;5.67;5.67;;;;;27.31;45.16;101636.09;5062595;28;45289;-61
2021/06/12 00:11:21;;;;;;;;;6.33;6.00;;;;;27.30;44.85;101637.06;5062240;28;50500;-61
2021/06/12 00:13:46;;;;;;;;;6.67;6.33;;;;;27.30;45.04;101642.38;5060713;28;56211;-61
2021/06/12 00:16:12;;;;;;;;;7.00;7.00;;;;;27.31;45.00;101643.25;5062263;28;48623;-62
2021/06/12 00:18:37;;;;;;;;;6.00;6.00;;;;;27.30;44.93;101645.06;5061287;28;45326;-61
2021/06/12 00:21:03;;;;;;;;;7.33;7.33;;;;;27.30;45.50;101647.72;5062324;28;48559;-61
2021/06/12 00:23:28;;;;;;;;;8.00;8.00;;;;;27.29;45.35;101646.03;5062062;28;45260;-61
2021/06/12 00:25:54;;;;;;;;;7.67;7.67;;;;;27.29;45.02;101651.34;5061079;28;45246;-60
2021/06/12 00:28:19;;;;;;;;;6.00;6.00;;;;;27.29;45.40;101646.03;5062336;28;45959;-61
2021/06/12 00:30:45;;;;;;;;;7.00;5.33;;;;;27.29;45.25;101639.81;5061528;28;55719;-61
2021/06/12 00:33:10;;;;;;;;;7.00;7.00;;;;;27.29;44.98;101646.03;5061839;27;45208;-60
2021/06/12 00:35:36;;;;;;;;;6.00;5.00;;;;;27.28;45.39;101646.09;5081174;28;45673;-61
2021/06/12 00:38:01;;;;;;;;;6.67;5.00;;;;;27.28;45.20;101654.09;5068244;27;48304;-61
2021/06/12 00:40:27;;;;;;;;;5.67;5.67;;;;;27.27;45.45;101661.25;5064833;28;45308;-61
2021/06/12 00:42:52;;;;;;;;;6.67;5.67;;;;;27.28;45.73;101659.44;5061705;28;50780;-61
2021/06/12 00:45:21;;;;;;;;;7.00;7.00;;;;;27.27;45.19;101663.91;5062346;28;45301;-60
2021/06/12 00:47:51;;;;;;;;;7.00;6.00;;;;;27.27;45.05;101661.25;5060330;28;45318;-61
2021/06/12 00:50:18;;;;;;;;;5.00;5.00;;;;;27.27;45.59;101663.91;5062361;28;45220;-61
2021/06/12 00:52:44;;;;;;;;;6.00;6.00;;;;;27.27;45.13;101665.69;5061528;28;46088;-61
2021/06/12 00:55:12;;;;;;;;;4.67;4.67;;;;;27.27;45.68;101660.38;5043931;28;45493;-61
2021/06/12 00:57:37;;;;;;;;;8.67;8.67;;;;;27.26;45.05;101662.19;5061771;28;45361;-61
2021/06/12 01:00:09;;;;;;;;;7.33;7.33;;;;;27.27;45.51;101660.38;5062377;28;45242;-60
2021/06/12 01:02:36;;;;;;;;;6.00;6.00;;;;;27.25;45.76;101655.16;5061486;28;45911;-61
2021/06/12 01:05:01;;;;;;;;;9.67;7.67;;;;;27.26;45.48;101658.66;5043630;28;45895;-61
2021/06/12 01:07:27;;;;;;;;;6.33;5.67;;;;;27.25;45.70;101652.47;5060184;28;45321;-60
2021/06/12 01:09:52;;;;;;;;;6.00;6.00;;;;;27.24;44.89;101656.09;5065145;28;45337;-60
2021/06/12 01:12:43;;;;;;;;;6.00;6.00;;;;;27.26;45.49;101650.66;5065070;28;46073;-61
2021/06/12 01:15:10;;;;;;;;;7.00;6.00;;;;;27.23;45.58;101647.22;5065320;28;45176;-61
2021/06/12 01:17:47;;;;;;;;;6.00;6.00;;;;;27.24;45.33;101650.75;5047074;28;45389;-61
2021/06/12 01:20:21;;;;;;;;;6.67;6.33;;;;;27.23;45.81;101644.56;5065249;28;45420;-60
2021/06/12 01:22:46;;;;;;;;;5.67;5.67;;;;;27.23;45.77;101649.88;5065059;28;46405;-61
2021/06/12 01:25:21;;;;;;;;;6.00;6.00;;;;;27.23;45.21;101635.72;5064923;28;45317;-61
2021/06/12 01:28:11;;;;;;;;;7.00;7.00;;;;;27.22;45.28;101639.31;5063975;28;45454;-60
2021/06/12 01:30:39;;;;;;;;;4.67;4.67;;;;;27.21;45.16;101634.94;5065061;28;45417;-60
2021/06/12 01:33:07;;;;;;;;;7.00;5.00;;;;;27.21;45.77;101642.94;5063315;28;45479;-60
2021/06/12 01:35:48;;;;;;;;;5.33;5.33;;;;;27.21;45.06;101637.59;5080167;27;45303;-60
2021/06/12 01:38:29;;;;;;;;;8.67;5.67;;;;;27.21;45.59;101642.94;5069181;28;45467;-60
2021/06/12 01:40:57;;;;;;;;;5.67;5.67;;;;;27.21;45.51;101646.47;5085447;27;45222;-60
2021/06/12 01:43:23;;;;;;;;;5.00;5.00;;;;;27.21;45.15;101645.59;5084786;27;46443;-60
2021/06/12 01:45:50;;;;;;;;;7.67;6.67;;;;;27.20;45.49;101644.75;5084981;27;45518;-61
2021/06/12 01:48:16;;;;;;;;;5.00;5.00;;;;;27.20;44.91;101655.41;5083707;28;45382;-61
2021/06/12 01:50:42;;;;;;;;;6.33;6.33;;;;;27.20;45.53;101644.75;5084027;28;45332;-60
2021/06/12 01:53:08;;;;;;;;;5.00;5.00;;;;;27.20;45.73;101646.53;5083319;28;46304;-60
2021/06/12 01:55:36;;;;;;;;;6.00;6.00;;;;;27.20;45.21;101646.53;5083812;28;45290;-60
2021/06/12 01:58:06;;;;;;;;;6.00;6.00;;;;;27.19;45.42;101643.03;5084745;27;45287;-60
2021/06/12 02:00:32;;;;;;;;;5.00;5.00;;;;;27.19;45.56;101640.38;5083973;28;45416;-60
2021/06/12 02:02:58;;;;;;;;;6.00;5.00;;;;;27.19;45.11;101640.38;5084235;27;45312;-60
2021/06/12 02:05:24;;;;;;;;;7.00;7.00;;;;;27.18;45.35;101641.31;5083270;27;45250;-60
2021/06/12 02:07:50;;;;;;;;;4.00;4.00;;;;;27.18;45.36;101636.00;5062975;28;45198;-60
2021/06/12 02:10:28;;;;;;;;;5.33;5.33;;;;;27.19;45.19;101642.16;5063529;28;45332;-60
2021/06/12 02:12:54;;;;;;;;;5.00;5.00;;;;;27.18;45.09;101643.97;5064222;28;46428;-60
2021/06/12 02:15:21;;;;;;;;;4.33;4.33;;;;;27.18;45.36;101651.09;5063004;28;45387;-60
2021/06/12 02:17:49;;;;;;;;;4.67;4.67;;;;;27.17;45.77;101649.38;5062833;28;45339;-60
2021/06/12 02:20:15;;;;;;;;;5.00;5.00;;;;;27.17;45.65;101646.72;5056102;28;45606;-61
2021/06/12 02:22:44;;;;;;;;;4.00;4.00;;;;;27.16;45.41;101653.88;5064089;28;45286;-61
2021/06/12 02:25:11;;;;;;;;;3.67;3.67;;;;;27.17;45.58;101654.72;5062652;28;45382;-61
2021/06/12 02:27:38;;;;;;;;;6.00;5.00;;;;;27.17;45.65;101655.59;5064093;28;45326;-60
2021/06/12 02:30:05;;;;;;;;;5.00;5.00;;;;;27.16;45.36;101660.97;5057165;28;45553;-61
2021/06/12 02:32:33;;;;;;;;;4.33;4.33;;;;;27.15;45.38;101662.81;5063324;28;45992;-60
2021/06/12 02:34:58;;;;;;;;;5.00;5.00;;;;;27.14;45.78;101669.06;5061164;28;45764;-60
2021/06/12 02:37:24;;;;;;;;;5.00;5.00;;;;;27.15;45.81;101673.47;5075344;27;47901;-61
2021/06/12 02:39:49;;;;;;;;;5.00;5.00;;;;;27.15;45.81;101676.13;5063378;28;52868;-61
2021/06/12 02:42:15;;;;;;;;;4.33;3.33;;;;;27.14;45.71;101679.72;5063857;28;46977;-61
2021/06/12 02:44:40;;;;;;;;;5.00;5.00;;;;;27.14;45.35;101671.75;5062948;28;66772;-61
2021/06/12 02:47:08;;;;;;;;;4.33;4.33;;;;;27.15;45.67;101675.28;5063832;28;45405;-61
2021/06/12 02:49:35;;;;;;;;;4.00;4.00;;;;;27.14;45.10;101671.75;5062808;28;45439;-60
2021/06/12 02:52:05;;;;;;;;;4.67;4.67;;;;;27.13;45.92;101667.34;5062312;28;45254;-61
2021/06/12 02:54:31;;;;;;;;;3.67;3.67;;;;;27.14;45.29;101668.22;5063551;28;45464;-60
2021/06/12 02:56:56;;;;;;;;;5.00;4.67;;;;;27.13;45.82;101670.03;5062481;28;45459;-61
2021/06/12 02:59:23;;;;;;;;;3.33;3.33;;;;;27.13;45.29;101670.03;5057908;28;45613;-61
2021/06/12 03:01:49;;;;;;;;;3.67;3.33;;;;;27.13;45.43;101666.50;5045235;28;46239;-60
2021/06/12 03:04:16;;;;;;;;;4.00;4.00;;;;;27.13;45.09;101661.19;5062287;28;45301;-60
2021/06/12 03:06:45;;;;;;;;;4.00;4.00;;;;;27.12;45.74;101657.66;5062285;28;45243;-61
2021/06/12 03:09:19;;;;;;;;;4.33;4.33;;;;;27.12;45.79;101654.97;5063751;28;45404;-61
2021/06/12 03:11:45;;;;;;;;;3.67;3.67;;;;;27.12;45.63;101659.47;5063193;28;46756;-61
2021/06/12 03:14:12;;;;;;;;;5.00;4.00;;;;;27.11;45.55;101649.75;5063143;28;45351;-61
2021/06/12 03:16:40;;;;;;;;;5.00;4.33;;;;;27.11;45.25;101647.09;5061923;28;45386;-61
2021/06/12 03:19:06;;;;;;;;;5.33;4.00;;;;;27.11;45.12;101650.59;5045331;28;45193;-61
2021/06/12 03:21:32;;;;;;;;;3.00;3.00;;;;;27.10;45.25;101662.19;5061158;28;60949;-60
2021/06/12 03:23:58;;;;;;;;;3.00;3.00;;;;;27.08;45.42;101659.63;5063060;28;45412;-61
2021/06/12 03:26:25;;;;;;;;;5.00;5.00;;;;;27.08;45.39;101656.97;5062197;28;45516;-60
2021/06/12 03:28:51;;;;;;;;;5.00;5.00;;;;;27.09;45.42;101657.81;5062795;28;51141;-60
2021/06/12 03:31:17;;;;;;;;;4.00;4.00;;;;;27.08;45.13;101664.09;5060823;28;45351;-60
2021/06/12 03:33:43;;;;;;;;;3.67;3.67;;;;;27.09;45.27;101657.81;5065707;27;45499;-60
2021/06/12 03:36:09;;;;;;;;;5.00;5.00;;;;;27.08;45.59;101658.75;5082155;28;45318;-60
2021/06/12 03:38:35;;;;;;;;;6.33;4.00;;;;;27.07;45.07;101663.25;5061316;28;52146;-60
2021/06/12 03:41:02;;;;;;;;;3.00;3.00;;;;;27.07;45.92;101665.91;5062305;28;56984;-61
2021/06/12 03:43:28;;;;;;;;;3.33;3.33;;;;;27.07;45.66;101665.06;5062732;28;45460;-61
2021/06/12 03:45:56;;;;;;;;;3.67;3.00;;;;;27.06;45.09;101666.84;5061738;28;45522;-61
2021/06/12 03:48:22;;;;;;;;;3.67;3.67;;;;;27.05;45.66;101675.78;5061637;28;45364;-60
2021/06/12 03:50:50;;;;;;;;;5.00;4.67;;;;;27.06;45.01;101671.34;5061491;28;45405;-60
2021/06/12 03:53:15;;;;;;;;;3.33;3.33;;;;;27.05;45.84;101673.13;5060299;28;45347;-60
2021/06/12 03:55:41;;;;;;;;;5.33;4.33;;;;;27.05;45.27;101677.59;5061607;28;45270;-60
2021/06/12 03:58:06;;;;;;;;;3.00;2.67;;;;;27.04;45.41;101684.72;5076316;28;53801;-60
2021/06/12 04:00:32;;;;;;;;;2.33;2.33;;;;;27.04;45.48;101681.22;5061349;28;45734;-60
2021/06/12 04:02:57;;;;;;;;;4.67;4.67;;;;;27.03;45.23;101684.81;5062288;28;45315;-60
2021/06/12 04:05:23;;;;;;;;;4.00;3.00;;;;;27.03;45.35;101685.66;5062536;28;45146;-61
2021/06/12 04:07:48;;;;;;;;;3.00;3.00;;;;;27.03;45.13;101693.66;5062645;28;45530;-60
2021/06/12 04:10:14;;;;;;;;;4.67;3.00;;;;;27.03;45.13;101695.47;5061825;28;61179;-60
2021/06/12 04:12:39;;;;;;;;;4.00;3.00;;;;;27.03;45.21;101693.66;5062306;28;45368;-60
2021/06/12 04:15:06;;;;;;;;;3.00;3.00;;;;;27.03;45.19;101700.81;5069253;28;45340;-60
2021/06/12 04:17:31;;;;;;;;;3.00;3.00;;;;;27.02;45.84;101699.94;5061009;28;45539;-60
2021/06/12 04:19:58;;;;;;;;;3.67;3.67;;;;;27.02;45.58;101691.94;5062087;28;46082;-60
2021/06/12 04:22:23;;;;;;;;;4.00;4.00;;;;;27.02;45.12;101686.63;5075914;28;45338;-60
2021/06/12 04:24:48;;;;;;;;;3.00;3.00;;;;;27.01;45.70;101690.22;5061892;28;52738;-61
2021/06/12 04:27:14;;;;;;;;;4.00;4.00;;;;;27.01;45.17;101684.03;5060794;28;47182;-61
2021/06/12 04:29:39;;;;;;;;;3.67;3.00;;;;;27.00;45.26;101688.50;5062027;28;46200;-61
2021/06/12 04:32:05;;;;;;;;;3.00;3.00;;;;;27.00;45.52;101693.81;5061762;28;45165;-61
2021/06/12 04:34:30;;;;;;;;;3.00;3.00;;;;;27.00;45.20;101692.97;5073761;28;45494;-61
2021/06/12 04:36:55;;;;;;;;;4.00;4.00;;;;;27.00;45.16;101685.84;5077456;28;47443;-60
2021/06/12 04:39:21;;;;;;;;;4.00;3.00;;;;;27.00;45.03;101699.16;5061874;28;46244;-61
2021/06/12 04:41:46;;;;;;;;;2.00;2.00;;;;;26.99;45.65;101697.47;5062051;28;45157;-61
2021/06/12 04:44:12;;;;;;;;;3.00;3.00;;;;;26.99;45.60;101705.47;5060705;28;46049;-61
2021/06/12 04:46:40;;;;;;;;;2.00;2.00;;;;;27.00;44.99;101701.81;5043958;28;45414;-61
2021/06/12 04:49:06;;;;;;;;;3.67;3.67;;;;;27.00;45.09;101692.97;5061800;28;47129;-60
2021/06/12 04:51:31;;;;;;;;;4.00;2.33;;;;;26.99;45.71;101692.13;5060593;28;45491;-60
2021/06/12 04:53:56;;;;;;;;;3.00;3.00;;;;;27.00;45.25;101692.97;5062000;28;45820;-61
2021/06/12 04:56:22;;;;;;;;;3.33;3.33;;;;;27.00;45.55;101696.50;5060322;28;52939;-63
2021/06/12 04:58:47;;;;;;;;;2.00;2.00;;;;;27.00;45.03;101704.47;5059628;28;68893;-61
2021/06/12 05:01:12;;;;;;;;;3.00;3.00;;;;;27.00;45.62;101704.47;5077494;28;45429;-59
2021/06/12 05:03:38;;;;;;;;;3.00;3.00;;;;;27.00;45.05;101709.81;5072282;27;45290;-60
2021/06/12 05:06:03;;;;;;;;;2.33;2.33;;;;;27.01;45.26;101708.88;5061255;28;53651;-60
2021/06/12 05:08:28;;;;;;;;;2.00;2.00;;;;;27.00;45.69;101701.81;5061749;28;45293;-60
2021/06/12 05:10:54;;;;;;;;;4.00;4.00;;;;;27.00;45.15;101704.47;5061301;28;53713;-61
2021/06/12 05:13:19;;;;;;;;;3.00;3.00;;;;;27.00;45.71;101704.47;5061477;28;48938;-61
2021/06/12 05:15:46;;;;;;;;;2.33;2.33;;;;;27.01;45.60;101705.34;5061644;28;45576;-61
2021/06/12 05:18:13;;;;;;;;;3.00;3.00;;;;;27.01;45.57;101706.19;5061425;28;45290;-59
2021/06/12 05:20:39;;;;;;;;;3.67;3.67;;;;;27.00;45.36;101707.16;5060032;28;45236;-59
2021/06/12 05:23:05;;;;;;;;;3.00;3.00;;;;;27.00;45.52;101704.47;5061750;28;45334;-60
2021/06/12 05:25:34;;;;;;;;;2.00;2.00;;;;;27.01;45.38;101708.03;5061688;28;45651;-60
2021/06/12 05:28:00;;;;;;;;;2.00;2.00;;;;;27.00;45.47;101708.97;5061442;28;45264;-59
2021/06/12 05:30:25;;;;;;;;;2.00;2.00;;;;;26.99;45.15;101708.13;5061146;28;45274;-61
2021/06/12 05:32:51;;;;;;;;;3.33;3.33;;;;;27.00;45.59;101709.81;5061394;28;45765;-61
2021/06/12 05:35:16;;;;;;;;;2.67;2.00;;;;;27.00;45.11;101701.81;5079574;27;45480;-59
2021/06/12 05:37:42;;;;;;;;;3.00;3.00;;;;;27.01;45.29;101700.03;5069274;28;47256;-59
2021/06/12 05:40:10;;;;;;;;;4.00;4.00;;;;;27.01;44.99;101692.88;5079036;28;45527;-60
2021/06/12 05:42:35;;;;;;;;;5.00;3.33;;;;;27.01;44.99;101695.53;5062477;27;45356;-62
2021/06/12 05:45:02;;;;;;;;;3.00;3.00;;;;;27.02;45.43;101699.94;5061370;28;45328;-63
2021/06/12 05:47:27;;;;;;;;;2.67;2.33;;;;;27.03;45.05;101703.47;5060813;28;45318;-64
2021/06/12 05:49:53;;;;;;;;;2.33;2.00;;;;;27.02;45.53;101702.59;5061030;28;45860;-62
2021/06/12 05:52:18;;;;;;;;;2.00;2.00;;;;;27.02;44.86;101707.91;5064101;28;45526;-62
2021/06/12 05:54:43;;;;;;;;;2.00;2.00;;;;;27.03;45.17;101712.31;5064108;28;56129;-62
2021/06/12 05:57:09;;;;;;;;;1.33;1.33;;;;;27.03;45.08;101712.31;5066268;28;57671;-62
2021/06/12 05:59:34;;;;;;;;;3.67;3.00;;;;;27.04;45.44;101711.38;5064853;28;45369;-63
2021/06/12 06:01:59;;;;;;;;;2.00;2.00;;;;;27.04;45.25;101719.34;5063808;28;57424;-62
2021/06/12 06:04:25;;;;;;;;;4.33;3.67;;;;;27.04;45.82;101710.53;5064618;28;45401;-62
2021/06/12 06:06:50;;;;;;;;;22.00;22.00;;;;;27.04;45.91;101711.38;5063410;28;65269;-62
2021/06/12 06:09:17;;;;;;;;;28.25;27.25;;;;;27.06;45.74;101713.97;5068174;28;45256;-62
2021/06/12 06:11:42;;;;;;;;;25.33;24.33;;;;;27.05;46.03;101710.41;5073802;28;45431;-62
2021/06/12 06:14:08;;;;;;;;;21.00;21.00;;;;;27.06;45.99;101712.13;5066500;28;45366;-63
2021/06/12 06:16:34;;;;;;;;;17.00;16.00;;;;;27.06;45.80;101719.28;5063611;28;65335;-63
2021/06/12 06:19:00;;;;;;;;;16.00;16.00;;;;;27.06;45.69;101713.97;5066078;28;45405;-63
2021/06/12 06:21:25;;;;;;;;;12.67;12.67;;;;;27.06;45.57;101720.13;5068279;28;45381;-63
2021/06/12 06:23:51;;;;;;;;;13.00;12.00;;;;;27.07;45.92;101721.84;5074581;27;45484;-62
2021/06/12 06:26:16;;;;;;;;;11.33;11.33;;;;;27.07;45.66;101719.19;5072920;28;45962;-63
2021/06/12 06:28:42;;;;;;;;;12.67;11.67;;;;;27.07;45.44;101713.00;5072393;28;45373;-63
2021/06/12 06:31:07;;;;;;;;;12.00;12.00;;;;;27.06;45.99;101714.81;5066197;28;45314;-62
2021/06/12 06:33:33;;;;;;;;;11.00;11.00;;;;;27.07;45.66;101721.84;5076947;28;46819;-63
2021/06/12 06:35:58;;;;;;;;;10.00;10.00;;;;;27.07;45.81;101729.84;5081493;28;46445;-63
2021/06/12 06:38:24;;;;;;;;;11.33;10.00;;;;;27.07;45.65;101734.31;5076888;27;45292;-63
2021/06/12 06:40:50;;;;;;;;;12.33;11.33;;;;;27.08;45.42;101733.34;5075178;28;45293;-72
2021/06/12 06:43:16;;;;;;;;;12.67;11.00;;;;;27.08;45.95;101733.34;5059386;28;45252;-62
2021/06/12 06:45:42;;;;;;;;;11.33;10.00;;;;;27.07;45.88;101735.16;5088276;27;48139;-62
2021/06/12 06:48:08;;;;;;;;;9.33;9.33;;;;;27.08;45.84;101736.00;5069953;27;45699;-63
2021/06/12 06:50:34;;;;;;;;;9.00;9.00;;;;;27.08;45.35;101734.22;5070595;27;45291;-62
2021/06/12 06:52:59;;;;;;;;;7.00;7.00;;;;;27.08;45.62;101750.22;5075001;27;45706;-62
2021/06/12 06:55:26;;;;;;;;;8.33;8.33;;;;;27.08;45.84;101744.88;5073920;28;46144;-62
2021/06/12 06:57:52;;;;;;;;;9.33;8.00;;;;;27.08;45.88;101739.56;5075512;28;46141;-63
2021/06/12 07:00:17;;;;;;;;;6.33;6.00;;;;;27.07;45.02;101743.16;5068207;28;45449;-65
2021/06/12 07:02:43;;;;;;;;;10.00;9.00;;;;;27.08;45.51;101733.34;5068754;28;45350;-72
2021/06/12 07:05:08;;;;;;;;;11.00;7.67;;;;;27.08;45.51;101747.53;5071907;28;46099;-71
2021/06/12 07:07:34;;;;;;;;;6.00;6.00;;;;;27.08;45.44;101749.34;5067395;28;45409;-66
2021/06/12 07:09:59;;;;;;;;;9.33;7.67;;;;;27.07;45.46;101745.81;5079221;28;45447;-72
2021/06/12 07:12:25;;;;;;;;;7.00;7.00;;;;;27.08;45.39;101744.00;5077631;28;54080;-68
2021/06/12 07:14:50;;;;;;;;;6.00;6.00;;;;;27.08;45.92;101750.22;5070614;28;62532;-70
2021/06/12 07:17:15;;;;;;;;;8.00;6.33;;;;;27.09;45.64;101753.72;5074129;28;61693;-76
2021/06/12 07:19:41;;;;;;;;;7.00;7.00;;;;;27.08;45.35;101752.88;5062837;28;45362;-76
2021/06/12 07:22:06;;;;;;;;;7.00;7.00;;;;;27.08;46.02;101757.31;5066328;27;48561;-70
2021/06/12 07:24:32;;;;;;;;;8.33;8.00;;;;;27.09;45.83;101761.72;5065042;27;46240;-72
2021/06/12 07:26:58;;;;;;;;;6.67;6.67;;;;;27.08;46.03;101763.53;5070691;28;45233;-69
2021/06/12 07:29:23;;;;;;;;;6.00;6.00;;;;;27.08;45.99;101763.53;5070560;28;45172;-70
2021/06/12 07:31:49;;;;;;;;;6.67;6.00;;;;;27.08;45.92;101768.84;5068389;28;49524;-65
2021/06/12 07:34:14;;;;;;;;;4.33;4.33;;;;;27.09;45.69;101775.03;5066288;27;46263;-60
2021/06/12 07:36:40;;;;;;;;;8.00;6.00;;;;;27.08;45.93;101781.31;5077816;28;45407;-60
2021/06/12 07:39:07;;;;;;;;;5.00;5.00;;;;;27.08;45.77;101782.19;5066079;27;45223;-61
2021/06/12 07:41:33;;;;;;;;;5.33;5.33;;;;;27.07;44.90;101788.44;5076901;27;45651;-61
2021/06/12 07:43:59;;;;;;;;;5.67;5.67;;;;;27.07;44.83;101788.44;5062235;28;47089;-56
2021/06/12 07:46:25;;;;;;;;;4.67;4.67;;;;;27.08;45.55;101800.81;5062429;28;45317;-53
2021/06/12 07:48:51;;;;;;;;;7.33;6.00;;;;;27.08;45.37;101803.50;5069905;28;45428;-56
2021/06/12 07:51:17;;;;;;;;;4.67;4.67;;;;;27.08;45.45;101806.16;5065633;28;45413;-51
2021/06/12 07:53:42;;;;;;;;;6.33;5.00;;;;;27.07;45.44;101806.25;5072432;27;45380;-50
2021/06/12 07:56:07;;;;;;;;;7.00;4.00;;;;;27.06;45.36;101801.88;5079067;28;46859;-48
2021/06/12 07:58:33;;;;;;;;;4.00;4.00;;;;;27.05;45.27;101800.16;5078217;28;65873;-53
2021/06/12 08:00:58;;;;;;;;;3.67;3.67;;;;;27.05;45.36;101800.16;5080931;27;45438;-53
2021/06/12 08:03:24;;;;;;;;;5.00;5.00;;;;;27.06;45.44;101799.19;5077285;27;55142;-52
2021/06/12 08:05:49;;;;;;;;;5.33;4.33;;;;;27.05;44.93;101802.81;5068148;28;67294;-51
2021/06/12 08:08:14;;;;;;;;;5.00;5.00;;;;;27.05;44.79;101805.47;5073108;27;55157;-51
2021/06/12 08:10:40;;;;;;;;;4.33;4.00;;;;;27.03;44.74;101802.88;5073673;28;45472;-59
2021/06/12 08:13:05;;;;;;;;;4.00;4.00;;;;;27.04;45.53;101809.94;5064581;27;46939;-52
2021/06/12 08:15:31;;;;;;;;;5.67;5.67;;;;;27.04;45.50;101811.75;5064857;28;45251;-59
2021/06/12 08:17:56;;;;;;;;;4.33;4.33;;;;;27.04;44.86;101817.06;5072635;27;49157;-52
2021/06/12 08:20:24;;;;;;;;;4.67;4.33;;;;;27.03;44.77;101821.53;5067171;28;45393;-50
2021/06/12 08:22:49;;;;;;;;;8.00;6.00;;;;;27.04;45.35;101828.56;5078936;27;46938;-51
2021/06/12 08:25:15;;;;;;;;;4.67;3.67;;;;;27.03;45.41;101831.34;5081162;27;55948;-52
2021/06/12 08:27:40;;;;;;;;;7.00;5.33;;;;;27.03;44.69;101826.84;5067123;27;45259;-52
2021/06/12 08:30:07;;;;;;;;;5.00;5.00;;;;;27.02;45.27;101827.78;5079787;28;57020;-51
2021/06/12 08:32:32;;;;;;;;;5.00;5.00;;;;;27.02;45.25;101822.47;5073083;28;45426;-50
2021/06/12 08:34:58;;;;;;;;;5.33;5.33;;;;;27.02;45.13;101819.78;5072543;28;45409;-59
2021/06/12 08:37:23;;;;;;;;;4.00;4.00;;;;;27.01;44.95;101818.06;5070029;28;45289;-58
2021/06/12 08:39:50;;;;;;;;;6.00;5.67;;;;;27.02;45.36;101822.47;5082344;27;45460;-58
2021/06/12 08:42:16;;;;;;;;;6.00;5.00;;;;;27.02;45.76;101821.63;5081101;28;45544;-58
2021/06/12 08:44:43;;;;;;;;;5.00;5.00;;;;;27.03;45.68;101818.00;5068409;28;45451;-58
2021/06/12 08:47:09;;;;;;;;;4.00;4.00;;;;;27.02;46.08;101825.13;5064719;28;45663;-60
2021/06/12 08:49:35;;;;;;;;;6.00;5.00;;;;;27.03;45.45;101836.66;5068587;28;45395;-58
2021/06/12 08:52:00;;;;;;;;;7.00;4.67;;;;;27.03;45.58;101836.66;5065561;28;46230;-59
2021/06/12 08:54:26;;;;;;;;;6.00;6.00;;;;;27.03;45.27;101837.50;5068367;27;45350;-59
2021/06/12 08:56:52;;;;;;;;;8.00;6.33;;;;;27.04;46.13;101833.91;5072553;28;45486;-53
2021/06/12 08:59:18;;;;;;;;;6.33;6.00;;;;;27.03;45.89;101837.50;5069223;28;45356;-59
2021/06/12 09:01:44;;;;;;;;;7.00;7.00;;;;;27.05;45.62;101848.09;5070552;28;47591;-55
2021/06/12 09:04:10;;;;;;;;;3.67;3.67;;;;;27.05;45.47;101845.44;5069555;28;45306;-57
2021/06/12 09:06:36;;;;;;;;;9.00;5.67;;;;;27.04;45.55;101839.22;5076198;27;45499;-54
2021/06/12 09:09:01;;;;;;;;;3.33;3.33;;;;;27.04;45.63;101833.91;5079904;28;45570;-54
2021/06/12 09:11:32;;;;;;;;;6.00;5.33;;;;;27.05;45.95;101835.63;5069862;27;46879;-55
2021/06/12 09:14:01;;;;;;;;;8.33;6.33;;;;;27.05;45.42;101835.63;5072909;28;45408;-50
2021/06/12 09:16:37;;;;;;;;;7.33;6.00;;;;;27.05;45.24;101838.28;5073300;27;45369;-49
2021/06/12 09:19:07;;;;;;;;;6.33;5.00;;;;;27.06;45.19;101836.50;5072332;27;45393;-52
2021/06/12 09:21:35;;;;;;;;;7.00;7.00;;;;;27.05;45.52;101838.28;5067444;27;46149;-50
2021/06/12 09:24:03;;;;;;;;;7.00;7.00;;;;;27.04;45.26;101844.56;5049266;28;45643;-52
2021/06/12 09:26:41;;;;;;;;;6.33;6.33;;;;;27.04;44.81;101836.56;5068139;28;45365;-49
2021/06/12 09:29:06;;;;;;;;;8.00;8.00;;;;;27.03;45.31;101837.50;5081628;27;45529;-51
2021/06/12 09:31:32;;;;;;;;;7.67;7.67;;;;;27.03;44.74;101832.19;5073283;28;45577;-52
2021/06/12 09:33:57;;;;;;;;;6.00;6.00;;;;;27.04;44.87;101841.03;5072300;28;60282;-56
2021/06/12 09:36:33;;;;;;;;;8.00;7.00;;;;;27.03;45.41;101837.50;5056284;28;45843;-59
2021/06/12 09:39:19;;;;;;;;;7.33;6.33;;;;;27.04;45.66;101839.22;5070962;28;45513;-58
2021/06/12 09:41:47;;;;;;;;;5.67;5.67;;;;;27.04;45.57;101833.06;5069251;28;47169;-59
2021/06/12 09:44:37;;;;;;;;;7.00;5.33;;;;;27.04;45.28;101841.88;5052967;28;45468;-59
2021/06/12 09:47:21;;;;;;;;;8.67;7.00;;;;;27.04;45.85;101847.22;5071521;28;45614;-59
2021/06/12 09:49:47;;;;;;;;;6.33;4.33;;;;;27.03;44.97;101837.50;5055467;28;45500;-58
2021/06/12 09:52:14;;;;;;;;;7.33;7.33;;;;;27.04;45.42;101844.56;5068256;28;46074;-59
2021/06/12 09:54:45;;;;;;;;;8.00;8.00;;;;;27.05;45.00;101837.44;5074919;28;45387;-59
2021/06/12 09:57:16;;;;;;;;;9.00;8.00;;;;;27.07;46.82;101841.72;5070850;28;45404;-59
2021/06/12 09:59:44;;;;;;;;;10.00;9.00;;;;;27.13;46.73;101832.53;5073211;28;46337;-58
2021/06/12 10:02:10;;;;;;;;;9.33;6.67;;;;;27.17;46.80;101839.44;5074622;28;45344;-59
2021/06/12 10:04:36;;;;;;;;;6.33;6.33;;;;;27.23;46.66;101844.41;5074052;28;45505;-59
2021/06/12 10:07:01;;;;;;;;;8.33;8.00;;;;;27.28;45.96;101843.28;5068992;28;45362;-59
2021/06/12 10:09:27;;;;;;;;;10.33;8.33;;;;;27.31;46.25;101833.31;5073515;28;45243;-59
2021/06/12 10:11:54;;;;;;;;;8.00;6.67;;;;;27.34;45.91;101830.47;5072198;27;46939;-58
2021/06/12 10:14:19;;;;;;;;;11.00;8.00;;;;;27.37;46.14;101835.66;5072237;28;45325;-59
2021/06/12 10:16:45;;;;;;;;;12.33;8.00;;;;;27.39;45.69;101839.09;5071095;28;45470;-58
2021/06/12 10:19:11;;;;;;;;;9.00;7.00;;;;;27.43;46.01;101833.59;5074085;27;45637;-59
2021/06/12 10:21:36;;;;;;;;;9.67;9.00;;;;;27.45;45.45;101829.91;5074907;27;45532;-57
2021/06/12 10:24:08;;;;;;;;;9.33;9.33;;;;;27.47;45.66;101833.38;5073579;28;45476;-57
2021/06/12 10:26:34;;;;;;;;;11.33;10.00;;;;;27.49;45.55;101835.94;5075014;28;45312;-58
2021/06/12 10:29:00;;;;;;;;;10.33;6.33;;;;;27.51;45.92;101836.72;5073725;27;45348;-57
2021/06/12 10:31:28;;;;;;;;;11.33;8.33;;;;;27.52;45.15;101838.44;5071982;28;46027;-58
2021/06/12 10:33:54;;;;;;;;;7.00;7.00;;;;;27.54;45.20;101836.53;5073902;28;45342;-58
2021/06/12 10:36:27;;;;;;;;;8.00;7.00;;;;;27.55;45.46;101846.25;5075808;27;45484;-53
2021/06/12 10:38:54;;;;;;;;;4.33;4.33;;;;;27.56;45.75;101847.09;5078707;28;45484;-55
2021/06/12 10:41:21;;;;;;;;;8.67;8.33;;;;;27.57;44.87;101851.50;5070640;27;46555;-56
2021/06/12 10:43:48;;;;;;;;;9.67;9.67;;;;;27.57;45.54;101844.38;5076617;28;45614;-53
2021/06/12 10:46:19;;;;;;;;;11.00;9.33;;;;;27.57;45.22;101851.50;5074311;28;45353;-53
2021/06/12 10:48:57;;;;;;;;;7.33;7.33;;;;;27.57;45.23;101857.69;5073789;27;45528;-51
2021/06/12 10:51:25;;;;;;;;;10.00;8.67;;;;;27.57;44.51;101844.38;5072945;28;46757;-55
2021/06/12 10:54:09;;;;;;;;;11.67;10.33;;;;;27.59;44.66;101849.59;5072228;28;45315;-56
2021/06/12 10:56:38;;;;;;;;;9.67;9.67;;;;;27.59;44.71;101855.81;5074632;28;45308;-57
2021/06/12 10:59:08;;;;;;;;;9.33;9.00;;;;;27.60;45.11;101851.31;5062493;28;45488;-57
2021/06/12 11:01:35;;;;;;;;;12.33;11.67;;;;;27.61;45.01;101856.56;5078096;28;47038;-53
2021/06/12 11:07:00;;;;;;;;;13.00;10.00;;;;;27.62;45.10;101866.28;5075259;28;45494;-52
2021/06/12 11:09:36;;;;;;;;;7.33;7.33;;;;;27.63;44.53;101860.00;5065143;28;45409;-55
2021/06/12 11:12:15;;;;;;;;;10.00;10.00;;;;;27.63;45.00;101859.16;5077245;28;45297;-55
2021/06/12 11:14:40;;;;;;;;;13.67;11.00;;;;;27.64;44.51;101874.22;5086594;28;45405;-51
2021/06/12 11:19:40;;;;;;;;;7.67;7.67;;;;;27.64;45.00;101861.72;5071917;28;45522;-52
2021/06/12 11:22:30;;;;;;;;;8.33;8.33;;;;;27.66;44.47;101864.31;5071114;27;45471;-47
2021/06/12 11:25:01;;;;;;;;;10.00;8.33;;;;;27.66;44.75;101859.00;5069951;28;45386;-53
2021/06/12 11:27:29;;;;;;;;;9.33;9.33;;;;;27.66;44.16;101856.31;5072356;28;45442;-55
2021/06/12 11:30:12;;;;;;;;;11.00;9.33;;;;;27.66;44.30;101857.16;5069632;28;45505;-56